This is the latest recevied weather packets stored in our database for station/object K6FAK-13. If no packets are shown the sender has not sent any weather packets the latest 1 day(s).
| Time | Temp. | Humidity | Pressure | Rain* | Wind** | Luminosity | Snow |
|---|---|---|---|---|---|---|---|
| 1778018653 | 18.33° C | 77% | 1017.6 hPa | 0 mm | 1.34 m/s, 79° | 104 W/m² | - |
| 1778018351 | 18.33° C | 78% | 1017.8 hPa | 0 mm | 0.45 m/s, 137° | 164 W/m² | - |
| 1778018049 | 18.89° C | 76% | 1017.6 hPa | 0 mm | 0.89 m/s, 178° | 262 W/m² | - |
| 1778017747 | 18.33° C | 77% | 1017.9 hPa | 0 mm | 0.89 m/s, 216° | 300 W/m² | - |
| 1778017444 | 18.33° C | 77% | 1017.8 hPa | 0 mm | 0.45 m/s, 232° | 441 W/m² | - |
| 1778017141 | 18.33° C | 77% | 1017.9 hPa | 0 mm | 0.89 m/s, 140° | 373 W/m² | - |
| 1778016839 | 18.33° C | 79% | 1017.7 hPa | 0 mm | 0.45 m/s, 149° | 380 W/m² | - |
| 1778016535 | 17.78° C | 78% | 1018 hPa | 0 mm | 0.45 m/s, 183° | 639 W/m² | - |
| 1778016232 | 18.33° C | 78% | 1017.8 hPa | 0 mm | 0.89 m/s, 173° | 373 W/m² | - |
| 1778015928 | 17.78° C | 79% | 1017.8 hPa | 0 mm | 0.89 m/s, 172° | 422 W/m² | - |
| 1778015626 | 17.78° C | 79% | 1018 hPa | 0 mm | 0.89 m/s, 132° | 251 W/m² | - |
| 1778015322 | 17.78° C | 79% | 1018.1 hPa | 0 mm | 0 m/s | 209 W/m² | - |
| 1778015019 | 17.78° C | 78% | 1018.1 hPa | 0 mm | 0 m/s | 213 W/m² | - |
| 1778014716 | 18.33° C | 78% | 1017.8 hPa | 0 mm | 0.45 m/s, 146° | 217 W/m² | - |
| 1778014414 | 18.33° C | 77% | 1018.1 hPa | 0 mm | 0 m/s | 229 W/m² | - |
| 1778014111 | 18.33° C | 77% | 1018.2 hPa | 0 mm | 0 m/s | 184 W/m² | - |
| 1778013809 | 18.89° C | 76% | 1018.1 hPa | 0 mm | 0 m/s | 162 W/m² | - |
| 1778013506 | 19.44° C | 75% | 1018 hPa | 0 mm | 0.45 m/s, 192° | 196 W/m² | - |
| 1778013202 | 18.89° C | 76% | 1018.1 hPa | 0 mm | 0 m/s | 418 W/m² | - |
| 1778012898 | 18.89° C | 74% | 1018.1 hPa | 0 mm | 0.45 m/s, 282° | 531 W/m² | - |
| 1778012595 | 17.78° C | 79% | 1018.2 hPa | 0 mm | 0.45 m/s, 190° | 934 W/m² | - |
| 1778012291 | 18.89° C | 78% | 1018.1 hPa | 0 mm | 0.89 m/s, 159° | 262 W/m² | - |
| 1778011989 | 17.78° C | 80% | 1018.3 hPa | 0 mm | 0 m/s | 962 W/m² | - |
| 1778011687 | 17.78° C | 81% | 1018.3 hPa | 0 mm | 0.45 m/s, 130° | 455 W/m² | - |
| 1778011384 | 17.78° C | 79% | 1018.3 hPa | 0 mm | 1.34 m/s, 96° | 484 W/m² | - |
* Rain latest hour (hover to see other rain measurements)
** Current wind speed in m/s (hover to see current wind gust speed)